sensor_id;sensor_type;location;lat;lon;timestamp;temperature;humidity
31387;DHT22;69978;50.096;8.448;2023-05-07T00:00:33;15.30;99.90
31387;DHT22;69978;50.096;8.448;2023-05-07T00:02:59;15.30;99.90
31387;DHT22;69978;50.096;8.448;2023-05-07T00:07:53;15.30;99.90
31387;DHT22;69978;50.096;8.448;2023-05-07T00:10:19;15.30;99.90
31387;DHT22;69978;50.096;8.448;2023-05-07T00:12:44;15.40;99.90
31387;DHT22;69978;50.096;8.448;2023-05-07T00:15:11;15.30;99.90
31387;DHT22;69978;50.096;8.448;2023-05-07T00:17:36;15.30;99.90
31387;DHT22;69978;50.096;8.448;2023-05-07T00:20:03;15.30;99.90
31387;DHT22;69978;50.096;8.448;2023-05-07T00:22:30;15.30;99.90
31387;DHT22;69978;50.096;8.448;2023-05-07T00:24:56;15.30;99.90
31387;DHT22;69978;50.096;8.448;2023-05-07T00:27:22;15.30;99.90
31387;DHT22;69978;50.096;8.448;2023-05-07T00:29:48;15.30;99.90
31387;DHT22;69978;50.096;8.448;2023-05-07T00:32:14;15.30;99.90
31387;DHT22;69978;50.096;8.448;2023-05-07T00:34:40;15.30;99.90
31387;DHT22;69978;50.096;8.448;2023-05-07T00:37:06;15.30;99.90
31387;DHT22;69978;50.096;8.448;2023-05-07T00:39:33;15.30;99.90
31387;DHT22;69978;50.096;8.448;2023-05-07T00:41:59;15.20;99.90
31387;DHT22;69978;50.096;8.448;2023-05-07T00:44:26;15.20;99.90
31387;DHT22;69978;50.096;8.448;2023-05-07T00:46:51;15.20;99.90
31387;DHT22;69978;50.096;8.448;2023-05-07T00:49:18;15.20;99.90
31387;DHT22;69978;50.096;8.448;2023-05-07T00:51:44;15.20;99.90
31387;DHT22;69978;50.096;8.448;2023-05-07T00:54:10;15.20;99.90
31387;DHT22;69978;50.096;8.448;2023-05-07T00:56:37;15.10;99.90
31387;DHT22;69978;50.096;8.448;2023-05-07T00:59:04;15.10;99.90
31387;DHT22;69978;50.096;8.448;2023-05-07T01:01:31;15.00;99.90
31387;DHT22;69978;50.096;8.448;2023-05-07T01:03:57;15.10;99.90
31387;DHT22;69978;50.096;8.448;2023-05-07T01:06:23;15.10;99.90
31387;DHT22;69978;50.096;8.448;2023-05-07T01:08:50;15.10;99.90
31387;DHT22;69978;50.096;8.448;2023-05-07T01:11:18;15.10;99.90
31387;DHT22;69978;50.096;8.448;2023-05-07T01:13:46;15.20;99.90
31387;DHT22;69978;50.096;8.448;2023-05-07T01:16:12;15.10;99.90
31387;DHT22;69978;50.096;8.448;2023-05-07T01:18:38;15.10;99.90
31387;DHT22;69978;50.096;8.448;2023-05-07T01:21:04;15.20;99.90
31387;DHT22;69978;50.096;8.448;2023-05-07T01:23:30;15.20;99.90
31387;DHT22;69978;50.096;8.448;2023-05-07T01:25:56;15.20;99.90
31387;DHT22;69978;50.096;8.448;2023-05-07T01:28:22;15.20;99.90
31387;DHT22;69978;50.096;8.448;2023-05-07T01:30:52;15.20;99.90
31387;DHT22;69978;50.096;8.448;2023-05-07T01:33:22;15.20;99.90
31387;DHT22;69978;50.096;8.448;2023-05-07T01:35:51;15.30;99.90
31387;DHT22;69978;50.096;8.448;2023-05-07T01:38:18;15.30;99.90
31387;DHT22;69978;50.096;8.448;2023-05-07T01:40:43;15.30;99.90
31387;DHT22;69978;50.096;8.448;2023-05-07T01:43:10;15.30;99.90
31387;DHT22;69978;50.096;8.448;2023-05-07T01:45:36;15.30;99.90
31387;DHT22;69978;50.096;8.448;2023-05-07T01:48:02;15.30;99.90
31387;DHT22;69978;50.096;8.448;2023-05-07T01:50:29;15.30;99.90
31387;DHT22;69978;50.096;8.448;2023-05-07T01:52:55;15.30;99.90
31387;DHT22;69978;50.096;8.448;2023-05-07T01:55:20;15.30;99.90
31387;DHT22;69978;50.096;8.448;2023-05-07T01:57:46;15.30;99.90
31387;DHT22;69978;50.096;8.448;2023-05-07T02:00:12;15.30;99.90
31387;DHT22;69978;50.096;8.448;2023-05-07T02:02:37;15.30;99.90
31387;DHT22;69978;50.096;8.448;2023-05-07T02:05:03;15.30;99.90
31387;DHT22;69978;50.096;8.448;2023-05-07T02:07:29;15.30;99.90
31387;DHT22;69978;50.096;8.448;2023-05-07T02:09:55;15.30;99.90
31387;DHT22;69978;50.096;8.448;2023-05-07T02:12:21;15.40;99.90
31387;DHT22;69978;50.096;8.448;2023-05-07T02:14:47;15.40;99.90
31387;DHT22;69978;50.096;8.448;2023-05-07T02:17:13;15.40;99.90
31387;DHT22;69978;50.096;8.448;2023-05-07T02:19:38;15.30;99.90
31387;DHT22;69978;50.096;8.448;2023-05-07T02:22:04;15.40;99.90
31387;DHT22;69978;50.096;8.448;2023-05-07T02:24:29;15.40;99.90
31387;DHT22;69978;50.096;8.448;2023-05-07T02:26:55;15.30;99.90
31387;DHT22;69978;50.096;8.448;2023-05-07T02:29:21;15.30;99.90
31387;DHT22;69978;50.096;8.448;2023-05-07T02:31:46;15.30;99.90
31387;DHT22;69978;50.096;8.448;2023-05-07T02:34:16;15.30;99.90
31387;DHT22;69978;50.096;8.448;2023-05-07T02:36:42;15.30;99.90
31387;DHT22;69978;50.096;8.448;2023-05-07T02:39:07;15.20;99.90
31387;DHT22;69978;50.096;8.448;2023-05-07T02:41:33;15.20;99.90
31387;DHT22;69978;50.096;8.448;2023-05-07T02:43:58;15.20;99.90
31387;DHT22;69978;50.096;8.448;2023-05-07T02:46:24;15.20;99.90
31387;DHT22;69978;50.096;8.448;2023-05-07T02:48:50;15.20;99.90
31387;DHT22;69978;50.096;8.448;2023-05-07T02:51:20;15.20;99.90
31387;DHT22;69978;50.096;8.448;2023-05-07T02:53:46;15.20;99.90
31387;DHT22;69978;50.096;8.448;2023-05-07T02:56:11;15.20;99.90
31387;DHT22;69978;50.096;8.448;2023-05-07T02:58:37;15.20;99.90
31387;DHT22;69978;50.096;8.448;2023-05-07T03:01:05;15.20;99.90
31387;DHT22;69978;50.096;8.448;2023-05-07T03:03:30;15.20;99.90
31387;DHT22;69978;50.096;8.448;2023-05-07T03:05:56;15.20;99.90
31387;DHT22;69978;50.096;8.448;2023-05-07T03:08:22;15.20;99.90
31387;DHT22;69978;50.096;8.448;2023-05-07T03:10:48;15.10;99.90
31387;DHT22;69978;50.096;8.448;2023-05-07T03:13:13;15.10;99.90
31387;DHT22;69978;50.096;8.448;2023-05-07T03:15:39;15.10;99.90
31387;DHT22;69978;50.096;8.448;2023-05-07T03:18:05;15.00;99.90
31387;DHT22;69978;50.096;8.448;2023-05-07T03:20:30;15.00;99.90
31387;DHT22;69978;50.096;8.448;2023-05-07T03:22:56;15.20;99.90
31387;DHT22;69978;50.096;8.448;2023-05-07T03:25:22;15.10;99.90
31387;DHT22;69978;50.096;8.448;2023-05-07T03:27:47;15.10;99.90
31387;DHT22;69978;50.096;8.448;2023-05-07T03:30:13;15.00;99.90
31387;DHT22;69978;50.096;8.448;2023-05-07T03:32:38;15.10;99.90
31387;DHT22;69978;50.096;8.448;2023-05-07T03:35:04;15.00;99.90
31387;DHT22;69978;50.096;8.448;2023-05-07T03:37:30;15.00;99.90
31387;DHT22;69978;50.096;8.448;2023-05-07T03:39:55;15.00;99.90
31387;DHT22;69978;50.096;8.448;2023-05-07T03:42:21;15.00;99.90
31387;DHT22;69978;50.096;8.448;2023-05-07T03:44:47;15.00;99.90
31387;DHT22;69978;50.096;8.448;2023-05-07T03:47:12;15.00;99.90
31387;DHT22;69978;50.096;8.448;2023-05-07T03:49:39;15.00;99.90
31387;DHT22;69978;50.096;8.448;2023-05-07T03:52:05;14.90;99.90
31387;DHT22;69978;50.096;8.448;2023-05-07T03:54:31;14.90;99.90
31387;DHT22;69978;50.096;8.448;2023-05-07T03:56:56;14.90;99.90
31387;DHT22;69978;50.096;8.448;2023-05-07T03:59:22;14.90;99.90
31387;DHT22;69978;50.096;8.448;2023-05-07T04:01:48;14.90;99.90
31387;DHT22;69978;50.096;8.448;2023-05-07T04:04:16;14.90;99.90
31387;DHT22;69978;50.096;8.448;2023-05-07T04:06:42;14.90;99.90
31387;DHT22;69978;50.096;8.448;2023-05-07T04:09:08;14.90;99.90
31387;DHT22;69978;50.096;8.448;2023-05-07T04:11:34;14.90;99.90
31387;DHT22;69978;50.096;8.448;2023-05-07T04:14:00;14.90;99.90
31387;DHT22;69978;50.096;8.448;2023-05-07T04:16:26;14.90;99.90
31387;DHT22;69978;50.096;8.448;2023-05-07T04:18:51;14.80;99.90
31387;DHT22;69978;50.096;8.448;2023-05-07T04:21:18;14.80;99.90
31387;DHT22;69978;50.096;8.448;2023-05-07T04:23:47;14.80;99.90
31387;DHT22;69978;50.096;8.448;2023-05-07T04:26:13;14.90;99.90
31387;DHT22;69978;50.096;8.448;2023-05-07T04:28:39;14.90;99.90
31387;DHT22;69978;50.096;8.448;2023-05-07T04:31:06;14.90;99.90
31387;DHT22;69978;50.096;8.448;2023-05-07T04:33:32;14.90;99.90
31387;DHT22;69978;50.096;8.448;2023-05-07T04:35:58;14.80;99.90
31387;DHT22;69978;50.096;8.448;2023-05-07T04:38:31;14.80;99.90
31387;DHT22;69978;50.096;8.448;2023-05-07T04:40:57;14.90;99.90
31387;DHT22;69978;50.096;8.448;2023-05-07T04:43:23;14.90;99.90
31387;DHT22;69978;50.096;8.448;2023-05-07T04:45:52;14.90;99.90
31387;DHT22;69978;50.096;8.448;2023-05-07T04:48:17;14.90;99.90
31387;DHT22;69978;50.096;8.448;2023-05-07T04:50:47;14.90;99.90
31387;DHT22;69978;50.096;8.448;2023-05-07T04:53:12;14.90;99.90
31387;DHT22;69978;50.096;8.448;2023-05-07T04:55:38;14.90;99.90
31387;DHT22;69978;50.096;8.448;2023-05-07T04:58:03;14.90;99.90
31387;DHT22;69978;50.096;8.448;2023-05-07T05:00:30;14.90;99.90
31387;DHT22;69978;50.096;8.448;2023-05-07T05:02:55;15.00;99.90
31387;DHT22;69978;50.096;8.448;2023-05-07T05:05:21;15.00;99.90
31387;DHT22;69978;50.096;8.448;2023-05-07T05:07:47;15.00;99.90
31387;DHT22;69978;50.096;8.448;2023-05-07T05:10:12;15.00;99.90
31387;DHT22;69978;50.096;8.448;2023-05-07T05:12:38;15.00;99.90
31387;DHT22;69978;50.096;8.448;2023-05-07T05:15:04;15.10;99.90
31387;DHT22;69978;50.096;8.448;2023-05-07T05:17:30;15.20;99.90
31387;DHT22;69978;50.096;8.448;2023-05-07T05:19:56;15.20;99.90
31387;DHT22;69978;50.096;8.448;2023-05-07T05:22:21;15.30;99.90
31387;DHT22;69978;50.096;8.448;2023-05-07T05:24:47;15.30;99.90
31387;DHT22;69978;50.096;8.448;2023-05-07T05:27:12;15.40;99.90
31387;DHT22;69978;50.096;8.448;2023-05-07T05:29:38;15.50;99.90
31387;DHT22;69978;50.096;8.448;2023-05-07T05:32:04;15.50;99.90
31387;DHT22;69978;50.096;8.448;2023-05-07T05:34:29;15.60;99.90
31387;DHT22;69978;50.096;8.448;2023-05-07T05:36:55;15.60;99.90
31387;DHT22;69978;50.096;8.448;2023-05-07T05:39:20;15.80;99.90
31387;DHT22;69978;50.096;8.448;2023-05-07T05:41:48;15.80;99.90
31387;DHT22;69978;50.096;8.448;2023-05-07T05:44:13;15.90;99.90
31387;DHT22;69978;50.096;8.448;2023-05-07T05:46:39;16.00;99.90
31387;DHT22;69978;50.096;8.448;2023-05-07T05:49:05;16.10;99.90
31387;DHT22;69978;50.096;8.448;2023-05-07T05:51:30;16.10;99.90
31387;DHT22;69978;50.096;8.448;2023-05-07T05:53:59;16.20;99.90
31387;DHT22;69978;50.096;8.448;2023-05-07T05:56:25;16.30;99.90
31387;DHT22;69978;50.096;8.448;2023-05-07T05:58:54;16.30;99.90
31387;DHT22;69978;50.096;8.448;2023-05-07T06:01:19;16.40;99.90
31387;DHT22;69978;50.096;8.448;2023-05-07T06:03:45;16.50;99.90
31387;DHT22;69978;50.096;8.448;2023-05-07T06:06:11;16.50;99.90
31387;DHT22;69978;50.096;8.448;2023-05-07T06:08:36;16.60;99.90
31387;DHT22;69978;50.096;8.448;2023-05-07T06:11:02;16.70;99.90
31387;DHT22;69978;50.096;8.448;2023-05-07T06:13:28;16.70;99.90
31387;DHT22;69978;50.096;8.448;2023-05-07T06:15:53;16.80;99.90
31387;DHT22;69978;50.096;8.448;2023-05-07T06:18:19;16.90;99.90
31387;DHT22;69978;50.096;8.448;2023-05-07T06:20:53;16.90;99.90
31387;DHT22;69978;50.096;8.448;2023-05-07T06:23:18;16.90;99.90
31387;DHT22;69978;50.096;8.448;2023-05-07T06:25:50;17.00;99.90
31387;DHT22;69978;50.096;8.448;2023-05-07T06:28:16;17.00;99.90
31387;DHT22;69978;50.096;8.448;2023-05-07T06:30:41;17.10;99.90
31387;DHT22;69978;50.096;8.448;2023-05-07T06:33:07;17.10;99.90
31387;DHT22;69978;50.096;8.448;2023-05-07T06:35:33;17.20;99.90
31387;DHT22;69978;50.096;8.448;2023-05-07T06:38:00;17.30;99.90
31387;DHT22;69978;50.096;8.448;2023-05-07T06:40:25;17.30;99.90
31387;DHT22;69978;50.096;8.448;2023-05-07T06:42:51;17.40;99.90
31387;DHT22;69978;50.096;8.448;2023-05-07T06:45:19;17.40;99.90
31387;DHT22;69978;50.096;8.448;2023-05-07T06:47:45;17.60;99.90
31387;DHT22;69978;50.096;8.448;2023-05-07T06:50:11;17.70;99.90
31387;DHT22;69978;50.096;8.448;2023-05-07T06:52:37;17.80;99.90
31387;DHT22;69978;50.096;8.448;2023-05-07T06:55:02;18.00;99.90
31387;DHT22;69978;50.096;8.448;2023-05-07T06:57:28;18.10;99.90
31387;DHT22;69978;50.096;8.448;2023-05-07T06:59:53;18.10;99.90
31387;DHT22;69978;50.096;8.448;2023-05-07T07:02:19;18.20;99.90
31387;DHT22;69978;50.096;8.448;2023-05-07T07:04:44;18.40;99.90
31387;DHT22;69978;50.096;8.448;2023-05-07T07:07:10;18.50;99.90
31387;DHT22;69978;50.096;8.448;2023-05-07T07:09:36;18.70;99.90
31387;DHT22;69978;50.096;8.448;2023-05-07T07:12:02;18.80;99.90
31387;DHT22;69978;50.096;8.448;2023-05-07T07:14:27;18.90;99.90
31387;DHT22;69978;50.096;8.448;2023-05-07T07:16:53;18.90;99.90
31387;DHT22;69978;50.096;8.448;2023-05-07T07:19:19;18.90;99.90
31387;DHT22;69978;50.096;8.448;2023-05-07T07:21:45;18.90;99.90
31387;DHT22;69978;50.096;8.448;2023-05-07T07:24:12;18.90;99.90
31387;DHT22;69978;50.096;8.448;2023-05-07T07:26:38;18.90;99.90
31387;DHT22;69978;50.096;8.448;2023-05-07T07:29:05;19.00;99.90
31387;DHT22;69978;50.096;8.448;2023-05-07T07:31:30;19.00;99.90
31387;DHT22;69978;50.096;8.448;2023-05-07T07:33:56;19.00;99.90
31387;DHT22;69978;50.096;8.448;2023-05-07T07:36:22;19.00;99.90
31387;DHT22;69978;50.096;8.448;2023-05-07T07:38:47;19.00;99.90
31387;DHT22;69978;50.096;8.448;2023-05-07T07:41:13;19.00;99.90
31387;DHT22;69978;50.096;8.448;2023-05-07T07:43:38;19.00;99.90
31387;DHT22;69978;50.096;8.448;2023-05-07T07:46:04;19.00;99.90
31387;DHT22;69978;50.096;8.448;2023-05-07T07:48:30;19.00;99.90
31387;DHT22;69978;50.096;8.448;2023-05-07T07:50:56;19.00;99.90
31387;DHT22;69978;50.096;8.448;2023-05-07T07:53:22;19.00;99.90
31387;DHT22;69978;50.096;8.448;2023-05-07T07:55:47;19.00;99.90
31387;DHT22;69978;50.096;8.448;2023-05-07T07:58:13;18.90;99.90
31387;DHT22;69978;50.096;8.448;2023-05-07T08:00:38;18.90;99.90
31387;DHT22;69978;50.096;8.448;2023-05-07T08:03:04;19.00;99.90
31387;DHT22;69978;50.096;8.448;2023-05-07T08:05:30;19.10;99.90
31387;DHT22;69978;50.096;8.448;2023-05-07T08:07:56;19.10;99.90
31387;DHT22;69978;50.096;8.448;2023-05-07T08:10:21;19.20;99.90
31387;DHT22;69978;50.096;8.448;2023-05-07T08:12:48;19.20;99.90
31387;DHT22;69978;50.096;8.448;2023-05-07T08:15:14;19.30;99.90
31387;DHT22;69978;50.096;8.448;2023-05-07T08:17:40;19.30;99.90
31387;DHT22;69978;50.096;8.448;2023-05-07T08:20:06;19.40;99.90
31387;DHT22;69978;50.096;8.448;2023-05-07T08:22:32;19.50;99.90
31387;DHT22;69978;50.096;8.448;2023-05-07T08:24:57;19.50;99.90
31387;DHT22;69978;50.096;8.448;2023-05-07T08:27:23;19.60;99.90
31387;DHT22;69978;50.096;8.448;2023-05-07T08:29:48;19.60;99.90
31387;DHT22;69978;50.096;8.448;2023-05-07T08:32:14;19.70;99.90
31387;DHT22;69978;50.096;8.448;2023-05-07T08:34:40;19.80;99.90
31387;DHT22;69978;50.096;8.448;2023-05-07T08:37:05;19.90;99.90
31387;DHT22;69978;50.096;8.448;2023-05-07T08:39:31;20.00;99.90
31387;DHT22;69978;50.096;8.448;2023-05-07T08:41:59;20.10;99.90
31387;DHT22;69978;50.096;8.448;2023-05-07T08:44:27;20.30;99.90
31387;DHT22;69978;50.096;8.448;2023-05-07T08:46:54;20.40;99.90
31387;DHT22;69978;50.096;8.448;2023-05-07T08:49:21;20.60;99.90
31387;DHT22;69978;50.096;8.448;2023-05-07T08:51:47;20.80;99.90
31387;DHT22;69978;50.096;8.448;2023-05-07T08:54:15;20.80;99.90
31387;DHT22;69978;50.096;8.448;2023-05-07T08:56:42;21.00;99.90
31387;DHT22;69978;50.096;8.448;2023-05-07T08:59:10;21.20;99.90
31387;DHT22;69978;50.096;8.448;2023-05-07T09:01:36;21.40;99.90
31387;DHT22;69978;50.096;8.448;2023-05-07T09:04:01;21.50;99.90
31387;DHT22;69978;50.096;8.448;2023-05-07T09:06:27;21.70;99.90
31387;DHT22;69978;50.096;8.448;2023-05-07T09:08:54;21.90;99.90
31387;DHT22;69978;50.096;8.448;2023-05-07T09:11:21;22.10;99.90
31387;DHT22;69978;50.096;8.448;2023-05-07T09:13:47;22.30;99.90
31387;DHT22;69978;50.096;8.448;2023-05-07T09:16:13;22.50;99.90
31387;DHT22;69978;50.096;8.448;2023-05-07T09:18:42;22.90;99.90
31387;DHT22;69978;50.096;8.448;2023-05-07T09:21:15;23.10;99.90
31387;DHT22;69978;50.096;8.448;2023-05-07T09:23:41;23.50;99.90
31387;DHT22;69978;50.096;8.448;2023-05-07T09:26:07;24.20;99.90
31387;DHT22;69978;50.096;8.448;2023-05-07T09:28:39;24.50;99.90
31387;DHT22;69978;50.096;8.448;2023-05-07T09:31:05;25.00;99.90
31387;DHT22;69978;50.096;8.448;2023-05-07T09:33:31;25.60;99.90
31387;DHT22;69978;50.096;8.448;2023-05-07T09:35:56;25.60;99.90
31387;DHT22;69978;50.096;8.448;2023-05-07T09:38:22;25.60;99.90
31387;DHT22;69978;50.096;8.448;2023-05-07T09:41:07;25.40;99.70
31387;DHT22;69978;50.096;8.448;2023-05-07T09:43:46;25.30;99.90
31387;DHT22;69978;50.096;8.448;2023-05-07T09:46:20;25.40;99.90
31387;DHT22;69978;50.096;8.448;2023-05-07T09:48:52;25.60;99.50
31387;DHT22;69978;50.096;8.448;2023-05-07T09:51:30;25.50;99.00
31387;DHT22;69978;50.096;8.448;2023-05-07T09:53:57;25.60;99.10
31387;DHT22;69978;50.096;8.448;2023-05-07T09:56:25;25.50;98.90
31387;DHT22;69978;50.096;8.448;2023-05-07T09:58:54;25.40;98.70
31387;DHT22;69978;50.096;8.448;2023-05-07T10:01:21;25.50;98.90
31387;DHT22;69978;50.096;8.448;2023-05-07T10:03:49;25.50;98.80
31387;DHT22;69978;50.096;8.448;2023-05-07T10:06:16;25.60;98.60
31387;DHT22;69978;50.096;8.448;2023-05-07T10:08:43;25.70;98.20
31387;DHT22;69978;50.096;8.448;2023-05-07T10:11:09;26.00;98.40
31387;DHT22;69978;50.096;8.448;2023-05-07T10:13:35;26.00;98.20
31387;DHT22;69978;50.096;8.448;2023-05-07T10:16:05;26.10;98.00
31387;DHT22;69978;50.096;8.448;2023-05-07T10:18:32;26.20;98.00
31387;DHT22;69978;50.096;8.448;2023-05-07T10:21:11;26.10;97.60
31387;DHT22;69978;50.096;8.448;2023-05-07T10:23:40;26.20;98.00
31387;DHT22;69978;50.096;8.448;2023-05-07T10:26:07;26.50;97.80
31387;DHT22;69978;50.096;8.448;2023-05-07T10:28:42;26.70;97.50
31387;DHT22;69978;50.096;8.448;2023-05-07T10:33:54;27.30;97.20
31387;DHT22;69978;50.096;8.448;2023-05-07T10:36:22;27.50;97.60
31387;DHT22;69978;50.096;8.448;2023-05-07T10:38:47;27.70;96.50
31387;DHT22;69978;50.096;8.448;2023-05-07T10:41:13;27.90;96.40
31387;DHT22;69978;50.096;8.448;2023-05-07T10:43:42;28.10;96.50
31387;DHT22;69978;50.096;8.448;2023-05-07T10:46:20;28.20;96.30
31387;DHT22;69978;50.096;8.448;2023-05-07T10:51:28;28.10;95.80
31387;DHT22;69978;50.096;8.448;2023-05-07T10:54:18;28.00;95.70
31387;DHT22;69978;50.096;8.448;2023-05-07T10:56:44;28.10;96.00
31387;DHT22;69978;50.096;8.448;2023-05-07T11:01:56;27.70;96.20
31387;DHT22;69978;50.096;8.448;2023-05-07T11:04:23;27.70;96.10
31387;DHT22;69978;50.096;8.448;2023-05-07T11:15:11;27.80;95.80
31387;DHT22;69978;50.096;8.448;2023-05-07T11:17:56;28.30;95.80
31387;DHT22;69978;50.096;8.448;2023-05-07T11:20:45;28.80;95.60
31387;DHT22;69978;50.096;8.448;2023-05-07T11:26:03;29.80;95.20
31387;DHT22;69978;50.096;8.448;2023-05-07T11:28:30;30.00;94.90
31387;DHT22;69978;50.096;8.448;2023-05-07T11:30:57;30.30;94.60
31387;DHT22;69978;50.096;8.448;2023-05-07T11:33:23;30.40;94.00
31387;DHT22;69978;50.096;8.448;2023-05-07T11:35:55;30.10;94.00
31387;DHT22;69978;50.096;8.448;2023-05-07T11:38:22;30.00;94.00
31387;DHT22;69978;50.096;8.448;2023-05-07T11:40:51;29.90;94.30
31387;DHT22;69978;50.096;8.448;2023-05-07T11:43:17;29.40;93.80
31387;DHT22;69978;50.096;8.448;2023-05-07T11:45:44;29.00;94.00
31387;DHT22;69978;50.096;8.448;2023-05-07T11:48:10;28.80;94.10
31387;DHT22;69978;50.096;8.448;2023-05-07T11:50:35;28.80;94.40
31387;DHT22;69978;50.096;8.448;2023-05-07T11:53:07;28.90;94.60
31387;DHT22;69978;50.096;8.448;2023-05-07T11:55:33;29.00;94.30
31387;DHT22;69978;50.096;8.448;2023-05-07T11:57:59;29.30;94.00
31387;DHT22;69978;50.096;8.448;2023-05-07T12:00:24;29.40;94.20
31387;DHT22;69978;50.096;8.448;2023-05-07T12:02:50;29.60;93.30
31387;DHT22;69978;50.096;8.448;2023-05-07T12:07:43;29.90;93.40
31387;DHT22;69978;50.096;8.448;2023-05-07T12:10:11;29.70;93.60
31387;DHT22;69978;50.096;8.448;2023-05-07T12:12:40;29.50;93.40
31387;DHT22;69978;50.096;8.448;2023-05-07T12:15:07;29.70;93.80
31387;DHT22;69978;50.096;8.448;2023-05-07T12:17:33;30.00;93.20
31387;DHT22;69978;50.096;8.448;2023-05-07T12:19:59;30.30;93.50
31387;DHT22;69978;50.096;8.448;2023-05-07T12:22:25;30.10;93.00
31387;DHT22;69978;50.096;8.448;2023-05-07T12:24:57;30.00;93.70
31387;DHT22;69978;50.096;8.448;2023-05-07T12:27:23;30.10;93.30
31387;DHT22;69978;50.096;8.448;2023-05-07T12:29:50;30.20;93.30
31387;DHT22;69978;50.096;8.448;2023-05-07T12:32:17;29.70;93.20
31387;DHT22;69978;50.096;8.448;2023-05-07T12:34:44;30.00;93.30
31387;DHT22;69978;50.096;8.448;2023-05-07T12:37:10;30.10;93.10
31387;DHT22;69978;50.096;8.448;2023-05-07T12:39:35;30.30;92.60
31387;DHT22;69978;50.096;8.448;2023-05-07T12:42:01;30.20;93.00
31387;DHT22;69978;50.096;8.448;2023-05-07T12:44:32;30.80;92.70
31387;DHT22;69978;50.096;8.448;2023-05-07T12:46:58;31.00;92.80
31387;DHT22;69978;50.096;8.448;2023-05-07T12:49:24;31.30;92.60
31387;DHT22;69978;50.096;8.448;2023-05-07T12:51:50;31.10;91.70
31387;DHT22;69978;50.096;8.448;2023-05-07T12:54:33;31.00;92.40
31387;DHT22;69978;50.096;8.448;2023-05-07T12:57:07;30.90;92.20
31387;DHT22;69978;50.096;8.448;2023-05-07T12:59:42;30.90;91.60
31387;DHT22;69978;50.096;8.448;2023-05-07T13:02:08;31.20;91.70
31387;DHT22;69978;50.096;8.448;2023-05-07T13:04:34;31.40;91.90
31387;DHT22;69978;50.096;8.448;2023-05-07T13:07:01;31.60;91.80
31387;DHT22;69978;50.096;8.448;2023-05-07T13:09:26;31.70;91.60
31387;DHT22;69978;50.096;8.448;2023-05-07T13:11:54;31.70;90.10
31387;DHT22;69978;50.096;8.448;2023-05-07T13:14:20;31.70;88.90
31387;DHT22;69978;50.096;8.448;2023-05-07T13:16:48;31.50;88.30
31387;DHT22;69978;50.096;8.448;2023-05-07T13:19:14;31.70;90.00
31387;DHT22;69978;50.096;8.448;2023-05-07T13:21:40;31.60;90.00
31387;DHT22;69978;50.096;8.448;2023-05-07T13:24:06;31.40;90.70
31387;DHT22;69978;50.096;8.448;2023-05-07T13:26:31;31.00;91.00
31387;DHT22;69978;50.096;8.448;2023-05-07T13:28:57;31.20;91.20
31387;DHT22;69978;50.096;8.448;2023-05-07T13:31:23;31.10;91.10
31387;DHT22;69978;50.096;8.448;2023-05-07T13:33:49;30.70;91.10
31387;DHT22;69978;50.096;8.448;2023-05-07T13:36:14;30.70;91.20
31387;DHT22;69978;50.096;8.448;2023-05-07T13:38:40;30.80;90.80
31387;DHT22;69978;50.096;8.448;2023-05-07T13:41:05;31.10;91.20
31387;DHT22;69978;50.096;8.448;2023-05-07T13:43:31;31.50;91.00
31387;DHT22;69978;50.096;8.448;2023-05-07T13:45:59;31.70;90.50
31387;DHT22;69978;50.096;8.448;2023-05-07T13:48:25;31.90;90.30
31387;DHT22;69978;50.096;8.448;2023-05-07T13:50:51;32.10;90.20
31387;DHT22;69978;50.096;8.448;2023-05-07T13:53:17;32.00;90.50
31387;DHT22;69978;50.096;8.448;2023-05-07T13:55:44;31.80;90.60
31387;DHT22;69978;50.096;8.448;2023-05-07T13:58:09;31.90;90.80
31387;DHT22;69978;50.096;8.448;2023-05-07T14:00:35;32.00;90.20
31387;DHT22;69978;50.096;8.448;2023-05-07T14:03:01;31.90;90.40
31387;DHT22;69978;50.096;8.448;2023-05-07T14:05:26;31.80;90.70
31387;DHT22;69978;50.096;8.448;2023-05-07T14:07:54;31.80;90.00
31387;DHT22;69978;50.096;8.448;2023-05-07T14:10:19;31.60;90.30
31387;DHT22;69978;50.096;8.448;2023-05-07T14:12:46;31.20;90.50
31387;DHT22;69978;50.096;8.448;2023-05-07T14:15:11;31.20;90.50
31387;DHT22;69978;50.096;8.448;2023-05-07T14:17:37;31.20;90.80
31387;DHT22;69978;50.096;8.448;2023-05-07T14:20:03;31.10;90.50
31387;DHT22;69978;50.096;8.448;2023-05-07T14:22:29;31.10;90.40
31387;DHT22;69978;50.096;8.448;2023-05-07T14:24:55;31.00;90.50
31387;DHT22;69978;50.096;8.448;2023-05-07T14:27:20;31.00;90.60
31387;DHT22;69978;50.096;8.448;2023-05-07T14:29:46;30.80;90.40
31387;DHT22;69978;50.096;8.448;2023-05-07T14:32:19;30.60;90.50
31387;DHT22;69978;50.096;8.448;2023-05-07T14:34:45;30.50;90.30
31387;DHT22;69978;50.096;8.448;2023-05-07T14:37:11;30.00;90.40
31387;DHT22;69978;50.096;8.448;2023-05-07T14:39:37;29.90;90.30
31387;DHT22;69978;50.096;8.448;2023-05-07T14:42:03;29.80;90.40
31387;DHT22;69978;50.096;8.448;2023-05-07T14:44:28;29.80;91.00
31387;DHT22;69978;50.096;8.448;2023-05-07T14:46:54;29.80;90.60
31387;DHT22;69978;50.096;8.448;2023-05-07T14:49:20;29.80;90.80
31387;DHT22;69978;50.096;8.448;2023-05-07T14:51:46;29.70;90.80
31387;DHT22;69978;50.096;8.448;2023-05-07T14:54:13;29.70;91.00
31387;DHT22;69978;50.096;8.448;2023-05-07T14:56:39;29.60;90.90
31387;DHT22;69978;50.096;8.448;2023-05-07T14:59:05;29.40;90.60
31387;DHT22;69978;50.096;8.448;2023-05-07T15:01:31;29.20;90.80
31387;DHT22;69978;50.096;8.448;2023-05-07T15:03:56;29.30;90.60
31387;DHT22;69978;50.096;8.448;2023-05-07T15:06:22;29.20;90.90
31387;DHT22;69978;50.096;8.448;2023-05-07T15:08:48;29.00;90.90
31387;DHT22;69978;50.096;8.448;2023-05-07T15:11:14;28.80;90.40
31387;DHT22;69978;50.096;8.448;2023-05-07T15:13:41;28.60;90.70
31387;DHT22;69978;50.096;8.448;2023-05-07T15:16:07;28.20;90.70
31387;DHT22;69978;50.096;8.448;2023-05-07T15:18:32;27.90;91.10
31387;DHT22;69978;50.096;8.448;2023-05-07T15:20:58;27.80;91.20
31387;DHT22;69978;50.096;8.448;2023-05-07T15:23:24;27.70;91.10
31387;DHT22;69978;50.096;8.448;2023-05-07T15:25:49;27.60;91.20
31387;DHT22;69978;50.096;8.448;2023-05-07T15:28:15;27.50;91.10
31387;DHT22;69978;50.096;8.448;2023-05-07T15:30:41;27.30;91.60
31387;DHT22;69978;50.096;8.448;2023-05-07T15:33:06;27.20;91.50
31387;DHT22;69978;50.096;8.448;2023-05-07T15:35:32;27.10;91.60
31387;DHT22;69978;50.096;8.448;2023-05-07T15:37:57;27.10;91.70
31387;DHT22;69978;50.096;8.448;2023-05-07T15:40:23;27.10;92.00
31387;DHT22;69978;50.096;8.448;2023-05-07T15:42:49;27.00;92.00
31387;DHT22;69978;50.096;8.448;2023-05-07T15:45:14;26.80;92.00
31387;DHT22;69978;50.096;8.448;2023-05-07T15:47:40;26.60;92.00
31387;DHT22;69978;50.096;8.448;2023-05-07T15:50:06;26.40;91.60